createdAt,value
2023-12-15T04:24:00.717Z,5.49
2023-12-15T04:27:03.448Z,5.49
2023-12-15T04:30:06.447Z,5.13
2023-12-15T04:33:09.027Z,5.23
2023-12-15T04:36:14.652Z,5.35
2023-12-15T04:39:17.134Z,5.38
2023-12-15T04:42:19.301Z,5.32
2023-12-15T04:45:23.899Z,5.21
2023-12-15T04:48:26.824Z,5.14
2023-12-15T04:51:29.492Z,5.18
2023-12-15T04:54:31.663Z,5.16
2023-12-15T04:57:34.229Z,5.19
2023-12-15T05:00:36.737Z,5.14
2023-12-15T05:03:39.428Z,5.12
2023-12-15T05:06:41.811Z,5.14
2023-12-15T05:09:48.051Z,5.11
2023-12-15T05:12:50.240Z,5.14
2023-12-15T05:15:53.020Z,5.18
2023-12-15T05:18:55.326Z,5.20
2023-12-15T05:21:57.998Z,5.19
2023-12-15T05:25:00.818Z,5.14
2023-12-15T05:28:03.351Z,5.17
2023-12-15T05:31:05.629Z,5.15
2023-12-15T05:34:08.145Z,5.14
2023-12-15T05:37:10.823Z,5.12
2023-12-15T05:40:13.665Z,5.19
2023-12-15T05:43:15.908Z,5.19
2023-12-15T05:46:20.828Z,5.16
2023-12-15T05:49:23.599Z,5.07
2023-12-15T05:52:26.643Z,5.05
2023-12-15T05:55:28.882Z,5.14
2023-12-15T05:58:31.330Z,5.09
2023-12-15T06:01:33.537Z,5.07
2023-12-15T06:04:36.805Z,5.06
2023-12-15T06:07:40.956Z,4.97
2023-12-15T06:10:43.650Z,5.08
2023-12-15T06:13:45.844Z,5.04
2023-12-15T06:16:49.185Z,4.90
2023-12-15T06:19:51.333Z,4.88
2023-12-15T06:22:55.762Z,4.85
2023-12-15T06:25:58.321Z,4.87
2023-12-15T06:29:00.877Z,4.89
2023-12-15T06:32:03.345Z,4.83
2023-12-15T06:35:06.828Z,4.78
2023-12-15T06:38:09.099Z,4.79
2023-12-15T06:41:12.952Z,4.82
2023-12-15T06:44:15.224Z,4.85
2023-12-15T06:47:17.808Z,4.89
2023-12-15T06:50:20.722Z,4.76
2023-12-15T06:53:23.708Z,4.86
2023-12-15T06:56:26.002Z,4.92
2023-12-15T06:59:28.498Z,4.90
2023-12-15T07:02:30.832Z,4.98
2023-12-15T07:05:33.545Z,4.87
2023-12-15T07:08:35.977Z,4.86
2023-12-15T07:11:40.776Z,5.03
2023-12-15T07:14:43.290Z,5.07
2023-12-15T07:17:48.583Z,5.13
2023-12-15T07:20:51.360Z,5.10
2023-12-15T07:23:54.230Z,5.18
2023-12-15T07:26:56.714Z,5.17
2023-12-15T07:29:59.813Z,5.26
2023-12-15T07:33:02.402Z,5.21
2023-12-15T07:36:06.477Z,5.30
2023-12-15T07:39:10.332Z,5.33
2023-12-15T07:42:12.974Z,5.31
2023-12-15T07:45:15.190Z,5.45
2023-12-15T07:48:18.294Z,5.52
2023-12-15T07:51:22.001Z,5.75
2023-12-15T07:54:24.622Z,5.85
2023-12-15T07:57:26.856Z,5.94
2023-12-15T08:00:29.363Z,6.15
2023-12-15T08:03:32.572Z,6.08
2023-12-15T08:06:38.322Z,6.27
2023-12-15T08:09:40.977Z,6.33
2023-12-15T08:12:43.396Z,6.25
2023-12-15T08:15:47.497Z,6.37
2023-12-15T08:18:49.867Z,6.43
2023-12-15T08:21:52.743Z,6.19
2023-12-15T08:24:55.055Z,6.20
2023-12-15T08:27:57.914Z,6.17
2023-12-15T08:31:00.420Z,6.08
2023-12-15T08:34:03.057Z,5.99
2023-12-15T08:37:05.571Z,6.06
2023-12-15T08:40:08.618Z,6.15
2023-12-15T08:43:10.782Z,6.21
2023-12-15T08:46:13.289Z,6.22
2023-12-15T08:49:15.620Z,6.16
2023-12-15T08:52:18.226Z,6.33
2023-12-15T08:55:20.748Z,6.30
2023-12-15T08:58:25.004Z,6.43
2023-12-15T09:01:27.324Z,6.39
2023-12-15T09:04:30.130Z,6.38
2023-12-15T09:07:32.514Z,6.33
2023-12-15T09:10:37.042Z,6.38
2023-12-15T09:13:39.354Z,6.35
2023-12-15T09:16:41.877Z,6.65
2023-12-15T09:19:44.323Z,6.65
2023-12-15T09:22:47.797Z,6.79
2023-12-15T09:25:50.754Z,6.82
2023-12-15T09:28:54.054Z,6.90
2023-12-15T09:31:56.837Z,6.72
2023-12-15T09:34:59.430Z,6.62
2023-12-15T09:38:01.662Z,6.53
2023-12-15T09:41:04.993Z,6.65
2023-12-15T09:44:07.511Z,6.80
2023-12-15T09:47:12.098Z,6.98
2023-12-15T09:50:16.605Z,6.95
2023-12-15T09:53:19.409Z,6.94
2023-12-15T09:56:21.696Z,7.11
2023-12-15T09:59:24.377Z,7.11
2023-12-15T10:02:29.277Z,7.11
2023-12-15T10:05:33.437Z,7.16
2023-12-15T10:08:53.962Z,7.04
2023-12-15T10:12:03.687Z,7.05
2023-12-15T10:15:08.165Z,7.22
2023-12-15T10:18:13.901Z,7.19
2023-12-15T10:21:16.270Z,6.99
2023-12-15T10:24:24.177Z,6.99
2023-12-15T10:27:26.704Z,7.16
2023-12-15T10:30:29.317Z,6.93
2023-12-15T10:33:31.882Z,6.88
2023-12-15T10:36:36.602Z,6.73
2023-12-15T10:39:38.806Z,6.77
2023-12-15T10:42:42.585Z,7.01
2023-12-15T10:45:46.260Z,6.98
2023-12-15T10:48:50.484Z,7.02
2023-12-15T10:51:52.826Z,6.87
2023-12-15T10:54:56.186Z,7.03
2023-12-15T10:58:03.846Z,6.95
2023-12-15T11:01:10.453Z,6.50
2023-12-15T11:04:23.855Z,6.48
2023-12-15T11:07:26.761Z,6.39
2023-12-15T11:10:29.074Z,6.17
2023-12-15T11:13:55.003Z,6.30
2023-12-15T11:16:57.217Z,6.60
2023-12-15T11:20:07.800Z,6.71
2023-12-15T11:23:12.880Z,6.54
2023-12-15T11:26:22.326Z,6.32
2023-12-15T11:29:24.550Z,6.47
2023-12-15T11:32:31.945Z,6.77
2023-12-15T11:35:34.827Z,6.90
2023-12-15T11:38:38.709Z,6.88
2023-12-15T11:41:43.206Z,7.10
2023-12-15T11:44:46.435Z,7.17
2023-12-15T11:47:48.726Z,7.23
2023-12-15T11:50:51.860Z,7.03
2023-12-15T11:53:54.195Z,7.10
2023-12-15T11:56:56.783Z,7.42
2023-12-15T11:59:59.005Z,7.42
2023-12-15T12:03:01.730Z,7.27
2023-12-15T12:06:09.768Z,7.46
2023-12-15T12:09:13.737Z,7.60
2023-12-15T12:12:16.310Z,7.73
2023-12-15T12:15:19.471Z,7.62
2023-12-15T12:18:25.152Z,7.75
2023-12-15T12:21:28.377Z,7.87
2023-12-15T12:24:31.049Z,7.88
2023-12-15T12:27:34.268Z,7.94
2023-12-15T12:30:37.467Z,8.09
2023-12-15T12:33:39.775Z,7.63
2023-12-15T12:36:42.808Z,7.71
2023-12-15T12:39:45.040Z,7.61
2023-12-15T12:42:47.904Z,7.69
2023-12-15T12:45:50.517Z,7.45
2023-12-15T12:48:53.173Z,7.24
2023-12-15T12:51:55.586Z,7.25
2023-12-15T12:54:58.113Z,7.33
2023-12-15T12:58:01.862Z,7.35
2023-12-15T13:01:04.938Z,7.55
2023-12-15T13:04:07.751Z,7.11
2023-12-15T13:07:10.456Z,7.18
2023-12-15T13:10:18.185Z,7.11
2023-12-15T13:13:24.024Z,7.38
2023-12-15T13:16:26.530Z,7.47
2023-12-15T13:19:29.203Z,7.68
2023-12-15T13:22:41.126Z,7.28
2023-12-15T13:25:50.313Z,7.38
2023-12-15T13:28:54.857Z,7.06
2023-12-15T13:31:58.897Z,6.83
2023-12-15T13:35:01.371Z,6.79
2023-12-15T13:38:04.234Z,6.80
2023-12-15T13:41:06.601Z,6.73
2023-12-15T13:44:09.192Z,6.49
2023-12-15T13:47:11.621Z,6.48
2023-12-15T13:50:16.196Z,6.37
2023-12-15T13:53:18.841Z,6.21
2023-12-15T13:56:24.688Z,6.22
2023-12-15T13:59:27.216Z,6.29
2023-12-15T14:02:29.795Z,6.29
2023-12-15T14:05:32.621Z,6.22
2023-12-15T14:08:35.395Z,6.15
2023-12-15T14:11:39.467Z,6.04
2023-12-15T14:14:41.757Z,5.96
2023-12-15T14:17:44.797Z,5.87
2023-12-15T14:20:47.505Z,5.65
2023-12-15T14:23:50.106Z,5.58
2023-12-15T14:26:52.543Z,5.43
2023-12-15T14:29:56.258Z,5.38
2023-12-15T14:32:59.945Z,5.33
2023-12-15T14:36:02.790Z,5.41
2023-12-15T14:39:08.179Z,5.19
2023-12-15T14:42:10.777Z,5.14
2023-12-15T14:45:13.117Z,5.09
2023-12-15T14:48:20.337Z,5.06
2023-12-15T14:51:23.838Z,4.94
2023-12-15T14:54:26.887Z,4.90
2023-12-15T14:57:29.109Z,4.76
2023-12-15T15:00:31.662Z,4.68
2023-12-15T15:03:34.919Z,4.54
2023-12-15T15:06:45.377Z,4.52
2023-12-15T15:09:48.730Z,4.45
2023-12-15T15:12:51.239Z,4.25
2023-12-15T15:15:53.664Z,4.37
2023-12-15T15:18:56.214Z,4.22
2023-12-15T15:21:58.773Z,4.25
2023-12-15T15:25:04.433Z,3.93
2023-12-15T15:28:08.285Z,3.91
2023-12-15T15:31:15.052Z,3.70
2023-12-15T15:34:19.308Z,3.53
2023-12-15T15:37:21.863Z,3.59
2023-12-15T15:40:24.090Z,3.48
2023-12-15T15:43:26.539Z,3.38
2023-12-15T15:46:28.702Z,3.21
2023-12-15T15:49:31.162Z,3.26
2023-12-15T15:52:33.401Z,3.17
2023-12-15T15:55:36.229Z,3.09
2023-12-15T15:58:41.557Z,3.07
2023-12-15T16:01:44.787Z,2.86
2023-12-15T16:04:47.574Z,2.86
2023-12-15T16:07:50.571Z,2.76
2023-12-15T16:10:54.207Z,2.77
2023-12-15T16:14:01.996Z,2.77
2023-12-15T16:17:08.649Z,2.64
2023-12-15T16:20:11.484Z,2.57
2023-12-15T16:23:15.012Z,2.56
